sensor_id;sensor_type;location;lat;lon;timestamp;pressure;altitude;pressure_sealevel;temperature;humidity
6853;BME280;3465;42.144;24.722;2022-10-28T00:00:26;100783.34;;;12.96;nan
6853;BME280;3465;42.144;24.722;2022-10-28T00:02:51;100750.25;;;12.80;nan
6853;BME280;3465;42.144;24.722;2022-10-28T00:05:17;100766.69;;;12.83;nan
6853;BME280;3465;42.144;24.722;2022-10-28T00:07:42;100770.78;;;12.75;nan
6853;BME280;3465;42.144;24.722;2022-10-28T00:10:08;100774.75;;;12.63;nan
6853;BME280;3465;42.144;24.722;2022-10-28T00:12:34;100779.53;;;12.49;nan
6853;BME280;3465;42.144;24.722;2022-10-28T00:15:00;100772.22;;;12.33;nan
6853;BME280;3465;42.144;24.722;2022-10-28T00:17:26;100770.78;;;12.13;nan
6853;BME280;3465;42.144;24.722;2022-10-28T00:19:51;100776.03;;;12.16;nan
6853;BME280;3465;42.144;24.722;2022-10-28T00:22:17;100780.25;;;12.14;nan
6853;BME280;3465;42.144;24.722;2022-10-28T00:24:42;100772.66;;;12.19;nan
6853;BME280;3465;42.144;24.722;2022-10-28T00:27:07;100771.47;;;12.08;nan
6853;BME280;3465;42.144;24.722;2022-10-28T00:29:33;100780.09;;;12.08;nan
6853;BME280;3465;42.144;24.722;2022-10-28T00:31:58;100769.94;;;12.14;nan
6853;BME280;3465;42.144;24.722;2022-10-28T00:34:24;100777.56;;;12.10;nan
6853;BME280;3465;42.144;24.722;2022-10-28T00:36:49;100747.47;;;11.79;nan
6853;BME280;3465;42.144;24.722;2022-10-28T00:39:23;100781.88;;;11.81;nan
6853;BME280;3465;42.144;24.722;2022-10-28T00:41:51;100786.13;;;11.81;nan
6853;BME280;3465;42.144;24.722;2022-10-28T00:47:15;100775.97;;;11.85;nan
6853;BME280;3465;42.144;24.722;2022-10-28T00:49:43;100780.38;;;11.89;nan
6853;BME280;3465;42.144;24.722;2022-10-28T00:52:16;100757.97;;;11.87;nan
6853;BME280;3465;42.144;24.722;2022-10-28T00:54:43;100777.31;;;12.01;nan
6853;BME280;3465;42.144;24.722;2022-10-28T00:57:12;100766.63;;;11.89;nan
6853;BME280;3465;42.144;24.722;2022-10-28T00:59:43;100762.28;;;11.86;nan
6853;BME280;3465;42.144;24.722;2022-10-28T01:02:10;100770.13;;;11.91;nan
6853;BME280;3465;42.144;24.722;2022-10-28T01:04:36;100771.88;;;11.92;nan
6853;BME280;3465;42.144;24.722;2022-10-28T01:07:02;100790.06;;;11.96;nan
6853;BME280;3465;42.144;24.722;2022-10-28T01:09:27;100785.56;;;11.91;nan
6853;BME280;3465;42.144;24.722;2022-10-28T01:31:03;100782.19;;;11.38;nan
6853;BME280;3465;42.144;24.722;2022-10-28T01:37:06;100782.63;;;10.99;nan
6853;BME280;3465;42.144;24.722;2022-10-28T01:41:58;100787.88;;;10.77;nan
6853;BME280;3465;42.144;24.722;2022-10-28T01:47:06;100788.28;;;10.89;nan
6853;BME280;3465;42.144;24.722;2022-10-28T01:52:11;100785.56;;;10.84;nan
6853;BME280;3465;42.144;24.722;2022-10-28T01:54:39;100789.16;;;10.89;nan
6853;BME280;3465;42.144;24.722;2022-10-28T01:57:06;100767.72;;;10.64;nan
6853;BME280;3465;42.144;24.722;2022-10-28T01:59:33;100784.94;;;10.66;nan
6853;BME280;3465;42.144;24.722;2022-10-28T02:01:59;100786.50;;;10.61;nan
6853;BME280;3465;42.144;24.722;2022-10-28T02:04:25;100765.34;;;10.45;nan
6853;BME280;3465;42.144;24.722;2022-10-28T02:06:55;100804.53;;;10.63;nan
6853;BME280;3465;42.144;24.722;2022-10-28T02:12:23;100800.09;;;10.59;nan
6853;BME280;3465;42.144;24.722;2022-10-28T02:18:34;100803.19;;;10.74;nan
6853;BME280;3465;42.144;24.722;2022-10-28T02:26:11;100792.34;;;10.82;nan
6853;BME280;3465;42.144;24.722;2022-10-28T02:31:34;100791.38;;;10.79;nan
6853;BME280;3465;42.144;24.722;2022-10-28T02:34:08;100790.41;;;10.75;nan
6853;BME280;3465;42.144;24.722;2022-10-28T02:36:39;100805.81;;;10.75;nan
6853;BME280;3465;42.144;24.722;2022-10-28T02:39:06;100807.91;;;10.62;nan
6853;BME280;3465;42.144;24.722;2022-10-28T02:41:57;100790.44;;;10.52;nan
6853;BME280;3465;42.144;24.722;2022-10-28T02:44:28;100797.97;;;10.47;nan
6853;BME280;3465;42.144;24.722;2022-10-28T02:46:57;100815.28;;;10.53;nan
6853;BME280;3465;42.144;24.722;2022-10-28T02:49:24;100792.91;;;10.50;nan
6853;BME280;3465;42.144;24.722;2022-10-28T02:51:57;100803.44;;;10.56;nan
6853;BME280;3465;42.144;24.722;2022-10-28T02:54:31;100819.75;;;10.58;nan
6853;BME280;3465;42.144;24.722;2022-10-28T02:57:11;100795.34;;;10.46;nan
6853;BME280;3465;42.144;24.722;2022-10-28T02:59:37;100813.56;;;10.52;nan
6853;BME280;3465;42.144;24.722;2022-10-28T03:02:04;100818.78;;;10.55;nan
6853;BME280;3465;42.144;24.722;2022-10-28T03:04:29;100814.34;;;10.51;nan
6853;BME280;3465;42.144;24.722;2022-10-28T03:06:54;100815.03;;;10.45;nan
6853;BME280;3465;42.144;24.722;2022-10-28T03:09:20;100813.31;;;10.46;nan
6853;BME280;3465;42.144;24.722;2022-10-28T03:11:45;100818.56;;;10.49;nan
6853;BME280;3465;42.144;24.722;2022-10-28T03:14:11;100813.00;;;10.37;nan
6853;BME280;3465;42.144;24.722;2022-10-28T03:16:36;100819.97;;;10.41;nan
6853;BME280;3465;42.144;24.722;2022-10-28T03:19:01;100808.44;;;10.30;nan
6853;BME280;3465;42.144;24.722;2022-10-28T03:21:27;100817.91;;;10.31;nan
6853;BME280;3465;42.144;24.722;2022-10-28T03:23:52;100815.25;;;10.28;nan
6853;BME280;3465;42.144;24.722;2022-10-28T03:26:18;100816.97;;;10.29;nan
6853;BME280;3465;42.144;24.722;2022-10-28T03:28:43;100816.88;;;10.26;nan
6853;BME280;3465;42.144;24.722;2022-10-28T03:31:08;100830.75;;;10.31;nan
6853;BME280;3465;42.144;24.722;2022-10-28T03:33:34;100823.06;;;10.31;nan
6853;BME280;3465;42.144;24.722;2022-10-28T03:35:59;100826.31;;;10.27;nan
6853;BME280;3465;42.144;24.722;2022-10-28T03:38:24;100827.03;;;10.23;nan
6853;BME280;3465;42.144;24.722;2022-10-28T03:40:50;100831.34;;;10.24;nan
6853;BME280;3465;42.144;24.722;2022-10-28T03:43:16;100836.44;;;10.22;nan
6853;BME280;3465;42.144;24.722;2022-10-28T03:45:42;100838.25;;;10.26;nan
6853;BME280;3465;42.144;24.722;2022-10-28T03:48:07;100809.19;;;10.03;nan
6853;BME280;3465;42.144;24.722;2022-10-28T03:50:33;100836.88;;;10.12;nan
6853;BME280;3465;42.144;24.722;2022-10-28T03:52:59;100802.00;;;9.95;nan
6853;BME280;3465;42.144;24.722;2022-10-28T03:55:24;100827.66;;;10.17;nan
6853;BME280;3465;42.144;24.722;2022-10-28T03:57:50;100836.38;;;10.21;nan
6853;BME280;3465;42.144;24.722;2022-10-28T04:00:16;100814.50;;;10.08;nan
6853;BME280;3465;42.144;24.722;2022-10-28T04:02:49;100810.81;;;10.01;nan
6853;BME280;3465;42.144;24.722;2022-10-28T04:05:15;100817.78;;;10.05;nan
6853;BME280;3465;42.144;24.722;2022-10-28T04:07:41;100830.13;;;10.14;nan
6853;BME280;3465;42.144;24.722;2022-10-28T04:10:07;100817.19;;;10.11;nan
6853;BME280;3465;42.144;24.722;2022-10-28T04:12:32;100798.75;;;10.00;nan
6853;BME280;3465;42.144;24.722;2022-10-28T04:14:57;100814.50;;;10.08;nan
6853;BME280;3465;42.144;24.722;2022-10-28T04:17:23;100830.91;;;10.12;nan
6853;BME280;3465;42.144;24.722;2022-10-28T04:19:48;100826.63;;;10.12;nan
6853;BME280;3465;42.144;24.722;2022-10-28T04:22:14;100831.81;;;10.13;nan
6853;BME280;3465;42.144;24.722;2022-10-28T04:24:39;100816.78;;;10.02;nan
6853;BME280;3465;42.144;24.722;2022-10-28T04:27:04;100826.19;;;10.01;nan
6853;BME280;3465;42.144;24.722;2022-10-28T04:29:30;100833.25;;;10.07;nan
6853;BME280;3465;42.144;24.722;2022-10-28T04:31:56;100811.84;;;9.84;nan
6853;BME280;3465;42.144;24.722;2022-10-28T04:34:22;100819.78;;;9.90;nan
6853;BME280;3465;42.144;24.722;2022-10-28T04:36:47;100834.59;;;9.97;nan
6853;BME280;3465;42.144;24.722;2022-10-28T04:39:13;100827.72;;;9.96;nan
6853;BME280;3465;42.144;24.722;2022-10-28T04:41:38;100822.59;;;9.96;nan
6853;BME280;3465;42.144;24.722;2022-10-28T04:44:04;100812.25;;;9.95;nan
6853;BME280;3465;42.144;24.722;2022-10-28T04:46:29;100826.19;;;10.01;nan
6853;BME280;3465;42.144;24.722;2022-10-28T04:48:55;100795.47;;;9.81;nan
6853;BME280;3465;42.144;24.722;2022-10-28T04:51:20;100827.59;;;9.93;nan
6853;BME280;3465;42.144;24.722;2022-10-28T04:53:45;100801.34;;;9.78;nan
6853;BME280;3465;42.144;24.722;2022-10-28T04:56:11;100811.97;;;9.87;nan
6853;BME280;3465;42.144;24.722;2022-10-28T04:58:36;100812.94;;;9.91;nan
6853;BME280;3465;42.144;24.722;2022-10-28T05:01:09;100804.44;;;9.92;nan
6853;BME280;3465;42.144;24.722;2022-10-28T05:03:35;100824.56;;;10.03;nan
6853;BME280;3465;42.144;24.722;2022-10-28T05:06:01;100822.81;;;10.02;nan
6853;BME280;3465;42.144;24.722;2022-10-28T05:08:26;100834.97;;;10.06;nan
6853;BME280;3465;42.144;24.722;2022-10-28T05:10:52;100825.38;;;10.02;nan
6853;BME280;3465;42.144;24.722;2022-10-28T05:13:18;100835.75;;;10.05;nan
6853;BME280;3465;42.144;24.722;2022-10-28T05:15:43;100825.31;;;10.01;nan
6853;BME280;3465;42.144;24.722;2022-10-28T05:18:09;100841.16;;;10.12;nan
6853;BME280;3465;42.144;24.722;2022-10-28T05:20:35;100841.03;;;10.08;nan
6853;BME280;3465;42.144;24.722;2022-10-28T05:23:00;100830.50;;;10.02;nan
6853;BME280;3465;42.144;24.722;2022-10-28T05:25:26;100833.97;;;10.03;nan
6853;BME280;3465;42.144;24.722;2022-10-28T05:27:51;100852.59;;;10.20;nan
6853;BME280;3465;42.144;24.722;2022-10-28T05:30:17;100865.81;;;10.30;nan
6853;BME280;3465;42.144;24.722;2022-10-28T05:32:42;100850.25;;;10.26;nan
6853;BME280;3465;42.144;24.722;2022-10-28T05:35:08;100840.91;;;10.28;nan
6853;BME280;3465;42.144;24.722;2022-10-28T05:37:34;100862.84;;;10.42;nan
6853;BME280;3465;42.144;24.722;2022-10-28T05:40:00;100851.63;;;10.40;nan
6853;BME280;3465;42.144;24.722;2022-10-28T05:42:25;100872.94;;;10.84;nan
6853;BME280;3465;42.144;24.722;2022-10-28T05:44:51;100882.06;;;11.50;nan
6853;BME280;3465;42.144;24.722;2022-10-28T05:47:16;100890.16;;;12.43;nan
6853;BME280;3465;42.144;24.722;2022-10-28T05:49:42;100884.53;;;13.17;nan
6853;BME280;3465;42.144;24.722;2022-10-28T05:52:07;100900.97;;;14.26;nan
6853;BME280;3465;42.144;24.722;2022-10-28T05:54:32;100898.53;;;15.18;nan
6853;BME280;3465;42.144;24.722;2022-10-28T05:56:58;100883.19;;;15.78;nan
6853;BME280;3465;42.144;24.722;2022-10-28T05:59:23;100910.31;;;16.61;nan
6853;BME280;3465;42.144;24.722;2022-10-28T06:01:49;100919.25;;;16.81;nan
6853;BME280;3465;42.144;24.722;2022-10-28T06:04:14;100909.94;;;17.02;nan
6853;BME280;3465;42.144;24.722;2022-10-28T06:06:39;100926.41;;;17.91;nan
6853;BME280;3465;42.144;24.722;2022-10-28T06:09:05;100931.16;;;18.52;nan
6853;BME280;3465;42.144;24.722;2022-10-28T06:11:30;100931.38;;;19.13;nan
6853;BME280;3465;42.144;24.722;2022-10-28T06:13:55;100939.31;;;19.53;nan
6853;BME280;3465;42.144;24.722;2022-10-28T06:16:21;100921.97;;;19.79;nan
6853;BME280;3465;42.144;24.722;2022-10-28T06:18:46;100944.53;;;20.35;nan
6853;BME280;3465;42.144;24.722;2022-10-28T06:21:14;100940.00;;;20.86;nan
6853;BME280;3465;42.144;24.722;2022-10-28T06:23:40;100933.63;;;21.43;nan
6853;BME280;3465;42.144;24.722;2022-10-28T06:26:05;100951.19;;;22.35;nan
6853;BME280;3465;42.144;24.722;2022-10-28T06:28:31;100961.19;;;22.80;nan
6853;BME280;3465;42.144;24.722;2022-10-28T06:31:04;100945.38;;;22.88;nan
6853;BME280;3465;42.144;24.722;2022-10-28T06:33:30;100958.69;;;23.39;nan
6853;BME280;3465;42.144;24.722;2022-10-28T06:35:57;100944.50;;;23.49;nan
6853;BME280;3465;42.144;24.722;2022-10-28T06:38:23;100958.00;;;23.81;nan
6853;BME280;3465;42.144;24.722;2022-10-28T06:40:49;100962.66;;;24.19;nan
6853;BME280;3465;42.144;24.722;2022-10-28T06:43:14;100957.97;;;24.35;nan
6853;BME280;3465;42.144;24.722;2022-10-28T06:45:40;100954.69;;;24.71;nan
6853;BME280;3465;42.144;24.722;2022-10-28T06:48:06;100970.28;;;25.21;nan
6853;BME280;3465;42.144;24.722;2022-10-28T06:50:33;100973.31;;;25.43;nan
6853;BME280;3465;42.144;24.722;2022-10-28T06:52:58;100973.19;;;25.85;nan
6853;BME280;3465;42.144;24.722;2022-10-28T06:55:25;100954.41;;;25.99;nan
6853;BME280;3465;42.144;24.722;2022-10-28T06:57:50;100967.00;;;26.21;nan
6853;BME280;3465;42.144;24.722;2022-10-28T07:00:16;100970.41;;;26.26;nan
6853;BME280;3465;42.144;24.722;2022-10-28T07:02:42;100950.63;;;26.42;nan
6853;BME280;3465;42.144;24.722;2022-10-28T07:05:07;100964.97;;;26.95;nan
6853;BME280;3465;42.144;24.722;2022-10-28T07:07:34;100967.25;;;27.38;nan
6853;BME280;3465;42.144;24.722;2022-10-28T07:10:03;100974.50;;;27.85;nan
6853;BME280;3465;42.144;24.722;2022-10-28T07:12:28;100969.56;;;28.02;nan
6853;BME280;3465;42.144;24.722;2022-10-28T07:14:54;100966.53;;;28.39;nan
6853;BME280;3465;42.144;24.722;2022-10-28T07:17:19;100978.38;;;28.76;nan
6853;BME280;3465;42.144;24.722;2022-10-28T07:19:45;100959.69;;;28.81;nan
6853;BME280;3465;42.144;24.722;2022-10-28T07:22:10;100954.09;;;29.13;nan
6853;BME280;3465;42.144;24.722;2022-10-28T07:24:35;100974.59;;;29.53;nan
6853;BME280;3465;42.144;24.722;2022-10-28T07:27:01;100943.72;;;29.95;nan
6853;BME280;3465;42.144;24.722;2022-10-28T07:29:26;100970.69;;;30.26;nan
6853;BME280;3465;42.144;24.722;2022-10-28T07:31:55;100965.69;;;30.38;nan
6853;BME280;3465;42.144;24.722;2022-10-28T07:34:21;100968.53;;;29.72;nan
6853;BME280;3465;42.144;24.722;2022-10-28T07:36:51;100965.34;;;27.69;nan
6853;BME280;3465;42.144;24.722;2022-10-28T07:39:17;100967.47;;;26.37;nan
6853;BME280;3465;42.144;24.722;2022-10-28T07:41:43;100966.69;;;24.84;nan
6853;BME280;3465;42.144;24.722;2022-10-28T07:44:08;100954.50;;;23.82;nan
6853;BME280;3465;42.144;24.722;2022-10-28T07:46:34;100956.09;;;22.68;nan
6853;BME280;3465;42.144;24.722;2022-10-28T07:48:59;100949.69;;;22.07;nan
6853;BME280;3465;42.144;24.722;2022-10-28T07:51:25;100940.34;;;21.80;nan
6853;BME280;3465;42.144;24.722;2022-10-28T07:53:51;100944.59;;;21.90;nan
6853;BME280;3465;42.144;24.722;2022-10-28T07:56:16;100930.00;;;22.59;nan
6853;BME280;3465;42.144;24.722;2022-10-28T07:58:43;100944.13;;;23.73;nan
6853;BME280;3465;42.144;24.722;2022-10-28T08:01:11;100953.22;;;24.99;nan
6853;BME280;3465;42.144;24.722;2022-10-28T08:03:37;100941.19;;;26.34;nan
6853;BME280;3465;42.144;24.722;2022-10-28T08:06:08;100961.19;;;27.62;nan
6853;BME280;3465;42.144;24.722;2022-10-28T08:08:34;100951.22;;;28.71;nan
6853;BME280;3465;42.144;24.722;2022-10-28T08:11:14;100969.81;;;29.39;nan
6853;BME280;3465;42.144;24.722;2022-10-28T08:13:40;100958.28;;;30.05;nan
6853;BME280;3465;42.144;24.722;2022-10-28T08:16:07;100959.41;;;30.81;nan
6853;BME280;3465;42.144;24.722;2022-10-28T08:18:33;100971.59;;;31.22;nan
6853;BME280;3465;42.144;24.722;2022-10-28T08:21:00;100958.69;;;31.52;nan
6853;BME280;3465;42.144;24.722;2022-10-28T08:23:27;100968.50;;;32.04;nan
6853;BME280;3465;42.144;24.722;2022-10-28T08:25:52;100958.66;;;31.89;nan
6853;BME280;3465;42.144;24.722;2022-10-28T08:28:18;100972.25;;;31.64;nan
6853;BME280;3465;42.144;24.722;2022-10-28T08:30:44;100953.97;;;31.40;nan
6853;BME280;3465;42.144;24.722;2022-10-28T08:33:10;100952.47;;;31.34;nan
6853;BME280;3465;42.144;24.722;2022-10-28T08:35:36;100940.47;;;31.26;nan
6853;BME280;3465;42.144;24.722;2022-10-28T08:38:02;100968.31;;;31.54;nan
6853;BME280;3465;42.144;24.722;2022-10-28T08:41:11;100970.53;;;31.63;nan
6853;BME280;3465;42.144;24.722;2022-10-28T08:49:25;100957.63;;;32.26;nan
6853;BME280;3465;42.144;24.722;2022-10-28T08:52:05;100961.84;;;32.30;nan
6853;BME280;3465;42.144;24.722;2022-10-28T08:54:43;100954.03;;;32.27;nan
6853;BME280;3465;42.144;24.722;2022-10-28T08:57:27;100943.31;;;31.94;nan
6853;BME280;3465;42.144;24.722;2022-10-28T08:59:56;100941.06;;;31.32;nan
6853;BME280;3465;42.144;24.722;2022-10-28T09:02:25;100947.94;;;32.08;nan
6853;BME280;3465;42.144;24.722;2022-10-28T09:05:03;100945.22;;;32.76;nan
6853;BME280;3465;42.144;24.722;2022-10-28T09:07:31;100948.66;;;33.10;nan
6853;BME280;3465;42.144;24.722;2022-10-28T09:09:58;100936.88;;;33.30;nan
6853;BME280;3465;42.144;24.722;2022-10-28T09:20:35;100927.78;;;34.38;nan
6853;BME280;3465;42.144;24.722;2022-10-28T09:23:26;100910.66;;;33.99;nan
6853;BME280;3465;42.144;24.722;2022-10-28T09:37:31;100910.22;;;32.99;nan
6853;BME280;3465;42.144;24.722;2022-10-28T09:40:04;100903.53;;;33.54;nan
6853;BME280;3465;42.144;24.722;2022-10-28T09:45:32;100900.19;;;33.35;nan
6853;BME280;3465;42.144;24.722;2022-10-28T09:48:26;100889.25;;;32.45;nan
6853;BME280;3465;42.144;24.722;2022-10-28T09:50:54;100892.38;;;32.68;nan
6853;BME280;3465;42.144;24.722;2022-10-28T09:56:27;100860.63;;;32.16;nan
6853;BME280;3465;42.144;24.722;2022-10-28T09:58:57;100862.13;;;32.54;nan
6853;BME280;3465;42.144;24.722;2022-10-28T10:01:31;100853.25;;;32.70;nan
6853;BME280;3465;42.144;24.722;2022-10-28T10:04:00;100851.22;;;33.22;nan
6853;BME280;3465;42.144;24.722;2022-10-28T10:06:29;100874.84;;;33.73;nan
6853;BME280;3465;42.144;24.722;2022-10-28T10:08:58;100866.19;;;34.13;nan
6853;BME280;3465;42.144;24.722;2022-10-28T10:13:57;100864.63;;;34.53;nan
6853;BME280;3465;42.144;24.722;2022-10-28T10:19:08;100859.44;;;33.78;nan
6853;BME280;3465;42.144;24.722;2022-10-28T10:21:44;100850.97;;;33.86;nan
6853;BME280;3465;42.144;24.722;2022-10-28T10:24:32;100862.97;;;33.18;nan
6853;BME280;3465;42.144;24.722;2022-10-28T10:27:11;100849.25;;;32.46;nan
6853;BME280;3465;42.144;24.722;2022-10-28T10:29:49;100828.50;;;31.16;nan
6853;BME280;3465;42.144;24.722;2022-10-28T10:32:19;100836.75;;;31.98;nan
6853;BME280;3465;42.144;24.722;2022-10-28T10:35:51;100837.47;;;32.50;nan
6853;BME280;3465;42.144;24.722;2022-10-28T10:38:13;100827.28;;;31.93;nan
6853;BME280;3465;42.144;24.722;2022-10-28T10:40:50;100829.59;;;31.99;nan
6853;BME280;3465;42.144;24.722;2022-10-28T10:45:51;100814.91;;;30.68;nan
6853;BME280;3465;42.144;24.722;2022-10-28T10:48:17;100817.66;;;30.85;nan
6853;BME280;3465;42.144;24.722;2022-10-28T10:50:45;100817.03;;;31.34;nan
6853;BME280;3465;42.144;24.722;2022-10-28T10:53:31;100818.28;;;31.61;nan
6853;BME280;3465;42.144;24.722;2022-10-28T10:55:59;100793.56;;;31.76;nan
6853;BME280;3465;42.144;24.722;2022-10-28T10:58:29;100802.63;;;31.38;nan
6853;BME280;3465;42.144;24.722;2022-10-28T11:00:56;100801.88;;;29.86;nan
6853;BME280;3465;42.144;24.722;2022-10-28T11:03:27;100787.69;;;28.61;nan
6853;BME280;3465;42.144;24.722;2022-10-28T11:05:55;100793.16;;;29.22;nan
6853;BME280;3465;42.144;24.722;2022-10-28T11:08:41;100795.16;;;29.58;nan
6853;BME280;3465;42.144;24.722;2022-10-28T11:13:39;100780.03;;;29.39;nan
6853;BME280;3465;42.144;24.722;2022-10-28T11:16:15;100778.50;;;28.46;nan
6853;BME280;3465;42.144;24.722;2022-10-28T11:18:44;100780.94;;;27.31;nan
6853;BME280;3465;42.144;24.722;2022-10-28T11:26:27;100775.78;;;26.73;nan
6853;BME280;3465;42.144;24.722;2022-10-28T11:29:15;100768.38;;;27.11;nan
6853;BME280;3465;42.144;24.722;2022-10-28T11:37:15;100770.81;;;28.40;nan
6853;BME280;3465;42.144;24.722;2022-10-28T11:44:53;100761.47;;;27.84;nan
6853;BME280;3465;42.144;24.722;2022-10-28T12:12:26;100724.00;;;26.42;nan
6853;BME280;3465;42.144;24.722;2022-10-28T12:18:21;100709.63;;;24.96;nan
6853;BME280;3465;42.144;24.722;2022-10-28T12:23:17;100693.59;;;24.72;nan
6853;BME280;3465;42.144;24.722;2022-10-28T12:25:47;100677.84;;;24.70;nan
6853;BME280;3465;42.144;24.722;2022-10-28T12:30:46;100690.56;;;24.52;nan
6853;BME280;3465;42.144;24.722;2022-10-28T12:33:17;100674.25;;;24.36;nan
6853;BME280;3465;42.144;24.722;2022-10-28T12:35:49;100663.91;;;24.30;nan
6853;BME280;3465;42.144;24.722;2022-10-28T12:38:23;100677.78;;;23.95;nan
6853;BME280;3465;42.144;24.722;2022-10-28T12:40:54;100680.50;;;23.89;nan
6853;BME280;3465;42.144;24.722;2022-10-28T12:43:46;100665.00;;;23.79;nan
6853;BME280;3465;42.144;24.722;2022-10-28T12:49:09;100671.09;;;23.37;nan
6853;BME280;3465;42.144;24.722;2022-10-28T12:51:40;100665.38;;;23.15;nan
6853;BME280;3465;42.144;24.722;2022-10-28T12:57:15;100661.91;;;23.13;nan
6853;BME280;3465;42.144;24.722;2022-10-28T13:00:03;100660.03;;;23.20;nan
6853;BME280;3465;42.144;24.722;2022-10-28T13:02:36;100628.44;;;22.79;nan
6853;BME280;3465;42.144;24.722;2022-10-28T13:05:03;100643.03;;;22.93;nan
6853;BME280;3465;42.144;24.722;2022-10-28T13:15:28;100656.00;;;23.02;nan
6853;BME280;3465;42.144;24.722;2022-10-28T13:24:00;100660.06;;;22.68;nan
6853;BME280;3465;42.144;24.722;2022-10-28T13:26:34;100646.78;;;22.77;nan
6853;BME280;3465;42.144;24.722;2022-10-28T13:29:05;100640.91;;;22.64;nan
6853;BME280;3465;42.144;24.722;2022-10-28T13:31:50;100648.97;;;22.51;nan
6853;BME280;3465;42.144;24.722;2022-10-28T13:34:18;100644.16;;;22.24;nan
6853;BME280;3465;42.144;24.722;2022-10-28T13:37:02;100651.75;;;22.39;nan
6853;BME280;3465;42.144;24.722;2022-10-28T13:44:52;100646.88;;;22.15;nan
6853;BME280;3465;42.144;24.722;2022-10-28T13:47:23;100637.97;;;22.28;nan
6853;BME280;3465;42.144;24.722;2022-10-28T13:55:20;100640.84;;;22.10;nan
6853;BME280;3465;42.144;24.722;2022-10-28T13:57:49;100640.81;;;22.13;nan
6853;BME280;3465;42.144;24.722;2022-10-28T14:03:01;100627.75;;;22.10;nan
6853;BME280;3465;42.144;24.722;2022-10-28T14:07:59;100633.50;;;22.34;nan
6853;BME280;3465;42.144;24.722;2022-10-28T14:10:26;100633.41;;;22.40;nan
6853;BME280;3465;42.144;24.722;2022-10-28T14:15:22;100615.34;;;22.22;nan
6853;BME280;3465;42.144;24.722;2022-10-28T14:17:56;100627.53;;;22.25;nan
6853;BME280;3465;42.144;24.722;2022-10-28T14:20:31;100619.00;;;22.12;nan
6853;BME280;3465;42.144;24.722;2022-10-28T14:22:58;100612.00;;;22.14;nan
6853;BME280;3465;42.144;24.722;2022-10-28T14:44:01;100597.97;;;21.56;nan
6853;BME280;3465;42.144;24.722;2022-10-28T14:49:16;100624.13;;;21.55;nan
6853;BME280;3465;42.144;24.722;2022-10-28T14:51:44;100618.00;;;21.56;nan
6853;BME280;3465;42.144;24.722;2022-10-28T14:54:31;100621.41;;;21.62;nan
6853;BME280;3465;42.144;24.722;2022-10-28T14:57:02;100610.97;;;21.61;nan
6853;BME280;3465;42.144;24.722;2022-10-28T14:59:39;100608.31;;;21.64;nan
6853;BME280;3465;42.144;24.722;2022-10-28T15:02:17;100617.00;;;21.66;nan
6853;BME280;3465;42.144;24.722;2022-10-28T15:04:46;100616.19;;;21.62;nan
6853;BME280;3465;42.144;24.722;2022-10-28T15:07:17;100617.91;;;21.62;nan
6853;BME280;3465;42.144;24.722;2022-10-28T15:09:45;100617.16;;;21.54;nan
6853;BME280;3465;42.144;24.722;2022-10-28T15:12:15;100606.81;;;21.45;nan
6853;BME280;3465;42.144;24.722;2022-10-28T15:14:55;100617.34;;;21.39;nan
6853;BME280;3465;42.144;24.722;2022-10-28T15:17:29;100612.28;;;21.23;nan
6853;BME280;3465;42.144;24.722;2022-10-28T15:20:17;100597.63;;;21.10;nan
6853;BME280;3465;42.144;24.722;2022-10-28T15:22:43;100604.69;;;21.01;nan
6853;BME280;3465;42.144;24.722;2022-10-28T15:25:13;100615.22;;;20.90;nan
6853;BME280;3465;42.144;24.722;2022-10-28T15:27:41;100604.94;;;20.74;nan
6853;BME280;3465;42.144;24.722;2022-10-28T15:30:23;100610.16;;;20.72;nan
6853;BME280;3465;42.144;24.722;2022-10-28T15:32:51;100605.91;;;20.61;nan
6853;BME280;3465;42.144;24.722;2022-10-28T15:37:59;100587.84;;;20.37;nan
6853;BME280;3465;42.144;24.722;2022-10-28T15:40:32;100614.84;;;20.34;nan
6853;BME280;3465;42.144;24.722;2022-10-28T15:45:30;100591.50;;;20.04;nan
6853;BME280;3465;42.144;24.722;2022-10-28T15:47:57;100608.00;;;20.09;nan
6853;BME280;3465;42.144;24.722;2022-10-28T15:50:30;100608.06;;;20.00;nan
6853;BME280;3465;42.144;24.722;2022-10-28T15:55:34;100600.41;;;19.74;nan
6853;BME280;3465;42.144;24.722;2022-10-28T15:58:25;100600.44;;;19.70;nan
6853;BME280;3465;42.144;24.722;2022-10-28T16:00:54;100605.66;;;19.61;nan
6853;BME280;3465;42.144;24.722;2022-10-28T16:03:25;100610.03;;;19.54;nan
6853;BME280;3465;42.144;24.722;2022-10-28T16:05:50;100596.19;;;19.45;nan
6853;BME280;3465;42.144;24.722;2022-10-28T16:08:26;100601.38;;;19.49;nan
6853;BME280;3465;42.144;24.722;2022-10-28T16:10:55;100604.88;;;19.47;nan
6853;BME280;3465;42.144;24.722;2022-10-28T16:16:03;100602.28;;;19.27;nan
6853;BME280;3465;42.144;24.722;2022-10-28T16:18:31;100593.69;;;18.97;nan
6853;BME280;3465;42.144;24.722;2022-10-28T16:20:58;100587.69;;;18.71;nan
6853;BME280;3465;42.144;24.722;2022-10-28T16:23:28;100605.03;;;18.44;nan
6853;BME280;3465;42.144;24.722;2022-10-28T16:25:56;100592.84;;;18.34;nan
6853;BME280;3465;42.144;24.722;2022-10-28T16:28:26;100611.09;;;18.49;nan
6853;BME280;3465;42.144;24.722;2022-10-28T16:30:57;100614.56;;;18.70;nan
6853;BME280;3465;42.144;24.722;2022-10-28T16:33:36;100611.97;;;18.67;nan
6853;BME280;3465;42.144;24.722;2022-10-28T16:36:02;100616.28;;;18.65;nan
6853;BME280;3465;42.144;24.722;2022-10-28T16:38:29;100618.91;;;18.71;nan
6853;BME280;3465;42.144;24.722;2022-10-28T16:40:56;100619.78;;;18.62;nan
6853;BME280;3465;42.144;24.722;2022-10-28T16:43:23;100613.69;;;18.56;nan
6853;BME280;3465;42.144;24.722;2022-10-28T16:45:51;100605.88;;;18.40;nan
6853;BME280;3465;42.144;24.722;2022-10-28T16:48:18;100621.50;;;18.48;nan
6853;BME280;3465;42.144;24.722;2022-10-28T16:50:48;100591.97;;;18.31;nan
6853;BME280;3465;42.144;24.722;2022-10-28T16:53:14;100616.28;;;18.40;nan
6853;BME280;3465;42.144;24.722;2022-10-28T16:55:40;100594.56;;;18.25;nan
6853;BME280;3465;42.144;24.722;2022-10-28T16:58:06;100611.06;;;18.36;nan
6853;BME280;3465;42.144;24.722;2022-10-28T17:00:31;100607.59;;;18.28;nan